Priština, Kosovo

10:14 AM CEST en Agosto 30, 2014 (GMT +0200)
Velania | Change Station
CLOSE
Current Station
Estación meteorológica personal
Location: Prishtina, KOSOVO
Altura: 2192 ft
Estaciones meteorológicas cercanas

Alt 2192 ft 42.66 °N, 21.18 °E | Updated 0 second ago

Clear
Despejado
79.3 ° F
Sensación térmica 80 ° F
N
3.8
Viento Variable Viento desde SO
Gusts 0.0 mph

Hoy
Alta -- | Baja -- ° F
--% Posibilidad de precipitaciones
Ayer
Alta -- | Baja -- ° F
Precip. -- pul
5:57 AM 7:13 PM
Creciente, 20% visible
Presión 30.06 pul
Visibilidad -9999.0 Millas
Nubes
Índice de calor 80 ° F
Punto de rocío 55 ° F
Humedad 43%
Precipitaciones 0.00 pul
Espesor de la nieve No disponible.
UV No disponible.
Polen No disponible.
Calidad del aire No disponible.
Flu Activity No disponible.
METAR LWSK 300800Z VRB02KT CAVOK 24/16 Q1018 NOSIG

More Conditions Fewer Conditions

Presión 30.06 pul
Visibilidad -9999.0 Millas
Nubes
Índice de calor 80 ° F
Punto de rocío 55 ° F
Humedad 43%
Precipitaciones 0.00 pul
Espesor de la nieve No disponible.
UV No disponible.
Polen No disponible.
Calidad del aire No disponible.
Flu Activity No disponible.
METAR LWSK 300800Z VRB02KT CAVOK 24/16 Q1018 NOSIG

More Conditions Fewer Conditions

10-Day Weather Forecast

Almanac

Astronomía

Aug. 30, 2014 Salida Puesta
Hora real 5:57 AM CEST 7:13 PM CEST
Crepúsculo civil 5:28 AM CEST 7:42 PM CEST
Crepúsculo náutico 4:53 AM CEST 8:17 PM CEST
Crepúsculo astronómico 4:16 AM CEST 8:54 PM CEST
Luna 10:34 AM CEST 9:28 PM CEST
Horas de luz 14h 14m
Horas de luz
13h 15m
Tomorrow will be 2m 45s shorter.
Creciente, 20% of the Moon is Illuminated
Hoy
Creciente
Sep 2
Cuarto creciente
Sep 8
Luna llena
Sep 15
Cuarto menguante
Sep 24
Nueva

Community

WunderPhotos

Upload Photos

1,748,468 ¡fotos cargadas!

Nearby

Calidad del aire

Not available.

Grosos de nieve

Not available.

Actividad de terremotos

Ciudad Distance Mag. Tiempo y dato
No hay informes recientes de la actividad sísmica.
Magnitud mínima muestra es 2,5.

Temperaturas de aguas costeras

Lugar Temperatura
Sin partes meteorológicos de las estaciones

Estaciones meteorológicas cercanas